createdAt,value
2023-02-02T00:05:22.715Z,214058.00
2023-02-02T00:11:26.022Z,214005.00
2023-02-02T00:17:29.092Z,213986.00
2023-02-02T00:23:31.423Z,213968.00
2023-02-02T00:29:33.705Z,214080.00
2023-02-02T00:35:35.970Z,214201.00
2023-02-02T00:41:38.902Z,214199.00
2023-02-02T00:47:41.216Z,214193.00
2023-02-02T00:53:43.441Z,214126.00
2023-02-02T00:59:46.530Z,214066.00
2023-02-02T01:05:50.664Z,213974.00
2023-02-02T01:11:53.013Z,213881.00
2023-02-02T01:17:55.403Z,213765.00
2023-02-02T01:23:57.725Z,213693.00
2023-02-02T01:30:00.137Z,213727.00
2023-02-02T01:36:12.139Z,213727.00
2023-02-02T01:42:20.790Z,213699.00
2023-02-02T01:48:30.135Z,213614.00
2023-02-02T01:54:35.930Z,213627.00
2023-02-02T02:00:41.462Z,213740.00
2023-02-02T02:06:45.722Z,213914.00
2023-02-02T02:12:49.114Z,213926.00
2023-02-02T02:19:10.314Z,214038.00
2023-02-02T02:25:56.442Z,214024.00
2023-02-02T02:32:36.003Z,214046.00
2023-02-02T02:38:42.979Z,214060.00
2023-02-02T02:44:47.425Z,214046.00
2023-02-02T02:50:50.445Z,214086.00
2023-02-02T02:57:12.124Z,214142.00
2023-02-02T03:03:45.123Z,214106.00
2023-02-02T03:09:49.370Z,214066.00
2023-02-02T03:15:51.797Z,214024.00
2023-02-02T03:21:54.571Z,213999.00
2023-02-02T03:27:56.811Z,213920.00
2023-02-02T03:33:59.293Z,213881.00
2023-02-02T03:40:01.615Z,213853.00
2023-02-02T03:46:05.749Z,213867.00
2023-02-02T03:52:08.374Z,213807.00
2023-02-02T03:58:10.632Z,213771.00
2023-02-02T04:04:13.059Z,213765.00
2023-02-02T04:10:15.123Z,213799.00
2023-02-02T04:16:17.845Z,213825.00
2023-02-02T04:22:20.282Z,213867.00
2023-02-02T04:28:24.177Z,213934.00
2023-02-02T04:34:26.635Z,213934.00
2023-02-02T04:40:28.808Z,214005.00
2023-02-02T04:46:32.793Z,214013.00
2023-02-02T04:52:35.531Z,214024.00
2023-02-02T04:58:37.805Z,214018.00
2023-02-02T05:04:40.202Z,213954.00
2023-02-02T05:10:42.968Z,213853.00
2023-02-02T05:16:45.418Z,213779.00
2023-02-02T05:22:50.365Z,213693.00
2023-02-02T05:28:53.212Z,213681.00
2023-02-02T05:34:56.055Z,213659.00
2023-02-02T05:40:58.282Z,213740.00
2023-02-02T05:47:00.535Z,213807.00
2023-02-02T05:53:03.365Z,213892.00
2023-02-02T05:59:07.802Z,213988.00
2023-02-02T06:05:10.278Z,214066.00
2023-02-02T06:11:16.091Z,214148.00
2023-02-02T06:17:18.375Z,214201.00
2023-02-02T06:23:20.906Z,214260.00
2023-02-02T06:29:23.462Z,214321.00
2023-02-02T06:35:25.849Z,214367.00
2023-02-02T06:41:28.350Z,214409.00
2023-02-02T06:47:33.209Z,214468.00
2023-02-02T06:53:35.814Z,214521.00
2023-02-02T06:59:38.529Z,214636.00
2023-02-02T07:05:40.911Z,214815.00
2023-02-02T07:11:45.480Z,215078.00
2023-02-02T07:17:47.827Z,215389.00
2023-02-02T07:23:50.768Z,215557.00
2023-02-02T07:29:53.454Z,215626.00
2023-02-02T07:35:55.692Z,215612.00
2023-02-02T07:41:57.894Z,215626.00
2023-02-02T07:48:09.483Z,215261.00
2023-02-02T07:54:11.768Z,217496.00
2023-02-02T08:00:17.468Z,218387.00
2023-02-02T08:06:23.022Z,218472.00
2023-02-02T08:12:27.107Z,218160.00
2023-02-02T08:18:29.304Z,218272.00
2023-02-02T08:24:31.426Z,219018.00
2023-02-02T08:30:35.715Z,218882.00
2023-02-02T08:36:38.187Z,217596.00
2023-02-02T08:42:40.315Z,217524.00
2023-02-02T08:48:42.803Z,215734.00
2023-02-02T08:54:46.468Z,214793.00
2023-02-02T09:00:48.628Z,214488.00
2023-02-02T09:06:51.102Z,214072.00
2023-02-02T09:12:53.348Z,213344.00
2023-02-02T09:18:57.114Z,212856.00
2023-02-02T09:24:59.684Z,212733.00
2023-02-02T09:31:02.972Z,212680.00
2023-02-02T09:37:05.304Z,212995.00
2023-02-02T09:43:42.827Z,212925.00
2023-02-02T09:49:53.980Z,213234.00
2023-02-02T09:56:02.012Z,213390.00
2023-02-02T10:02:17.137Z,213561.00
2023-02-02T10:08:34.946Z,213561.00
2023-02-02T10:14:45.231Z,213336.00
2023-02-02T10:21:07.812Z,213254.00
2023-02-02T10:27:15.896Z,213170.00
2023-02-02T10:33:37.036Z,213125.00
2023-02-02T10:39:51.342Z,213117.00
2023-02-02T10:45:54.643Z,213053.00
2023-02-02T10:52:11.857Z,212836.00
2023-02-02T10:58:14.045Z,212692.00
2023-02-02T11:04:35.997Z,212549.00
2023-02-02T11:10:38.402Z,212507.00
2023-02-02T11:16:44.407Z,212455.00
2023-02-02T11:22:46.832Z,212399.00
2023-02-02T11:28:51.223Z,212493.00
2023-02-02T11:35:08.620Z,212447.00
2023-02-02T11:41:13.996Z,212385.00
2023-02-02T11:47:22.505Z,212379.00
2023-02-02T11:53:47.963Z,212351.00
2023-02-02T11:59:52.245Z,212499.00
2023-02-02T12:05:55.018Z,212596.00
2023-02-02T12:11:57.546Z,212588.00
2023-02-02T12:18:14.907Z,212549.00
2023-02-02T12:24:26.148Z,212632.00
2023-02-02T12:30:43.991Z,212714.00
2023-02-02T12:37:10.701Z,212788.00
2023-02-02T12:43:33.663Z,212939.00
2023-02-02T12:50:02.989Z,213081.00
2023-02-02T12:56:31.657Z,212925.00
2023-02-02T13:03:03.011Z,212856.00
2023-02-02T13:09:21.413Z,212911.00
2023-02-02T13:15:30.039Z,212905.00
2023-02-02T13:21:35.153Z,212774.00
2023-02-02T13:27:39.335Z,212822.00
2023-02-02T13:33:44.006Z,212680.00
2023-02-02T13:39:54.593Z,212618.00
2023-02-02T13:46:05.897Z,212507.00
2023-02-02T13:52:46.449Z,212427.00
2023-02-02T13:59:02.371Z,212365.00
2023-02-02T14:05:07.383Z,212351.00
2023-02-02T14:11:19.414Z,212351.00
2023-02-02T14:17:42.601Z,212316.00
2023-02-02T14:23:54.301Z,212284.00
2023-02-02T14:29:56.511Z,212215.00
2023-02-02T14:36:03.929Z,212134.00
2023-02-02T14:42:41.101Z,212031.00
2023-02-02T14:49:07.339Z,216054.00
2023-02-02T14:55:21.623Z,215971.00
2023-02-02T15:01:27.706Z,215903.00
2023-02-02T15:07:33.387Z,215856.00
2023-02-02T15:13:37.948Z,215816.00
2023-02-02T15:19:45.467Z,215742.00
2023-02-02T15:25:52.657Z,215680.00
2023-02-02T15:31:56.150Z,215646.00
2023-02-02T15:38:01.656Z,215599.00
2023-02-02T15:44:20.305Z,215546.00
2023-02-02T15:50:23.012Z,215498.00
2023-02-02T15:56:25.110Z,215409.00
2023-02-02T16:02:46.424Z,215349.00
2023-02-02T16:08:50.054Z,215341.00
2023-02-02T16:14:54.845Z,215328.00
2023-02-02T16:21:01.139Z,215336.00
2023-02-02T16:27:06.919Z,215314.00
2023-02-02T16:33:30.545Z,215322.00
2023-02-02T16:39:33.215Z,215336.00
2023-02-02T16:45:39.965Z,215341.00
2023-02-02T16:51:42.196Z,215275.00
2023-02-02T16:57:47.426Z,215283.00
2023-02-02T17:03:55.638Z,215227.00
2023-02-02T17:10:21.447Z,215235.00
2023-02-02T17:16:25.034Z,215235.00
2023-02-02T17:22:30.465Z,215235.00
2023-02-02T17:28:32.809Z,215275.00
2023-02-02T17:34:35.115Z,215275.00
2023-02-02T17:40:37.612Z,215275.00
2023-02-02T17:46:40.328Z,215255.00
2023-02-02T17:52:43.692Z,215194.00
2023-02-02T17:58:45.913Z,215154.00
2023-02-02T18:04:48.293Z,215120.00
2023-02-02T18:10:50.743Z,215078.00
2023-02-02T18:16:52.987Z,215006.00
2023-02-02T18:22:55.262Z,214925.00
2023-02-02T18:28:57.533Z,214911.00
2023-02-02T18:34:59.763Z,214883.00
2023-02-02T18:41:03.885Z,214829.00
2023-02-02T18:47:06.771Z,214804.00
2023-02-02T18:53:11.815Z,214784.00
2023-02-02T18:59:14.270Z,214823.00
2023-02-02T19:05:35.079Z,214815.00
2023-02-02T19:11:44.201Z,214804.00
2023-02-02T19:17:54.847Z,214759.00
2023-02-02T19:23:57.448Z,214763.00
2023-02-02T19:30:03.922Z,214715.00
2023-02-02T19:36:17.662Z,214689.00
2023-02-02T19:42:20.408Z,214636.00
2023-02-02T19:48:28.092Z,214622.00
2023-02-02T19:54:42.690Z,214628.00
2023-02-02T20:00:47.176Z,214616.00
2023-02-02T20:06:59.135Z,214588.00
2023-02-02T20:13:01.706Z,214546.00
2023-02-02T20:19:03.890Z,214521.00
2023-02-02T20:25:09.274Z,214508.00
2023-02-02T20:31:19.032Z,214476.00
2023-02-02T20:37:27.142Z,214415.00
2023-02-02T20:43:29.741Z,214367.00
2023-02-02T20:49:32.134Z,214367.00
2023-02-02T20:55:36.444Z,214321.00
2023-02-02T21:01:39.265Z,214293.00
2023-02-02T21:07:41.607Z,214241.00
2023-02-02T21:13:43.737Z,214213.00
2023-02-02T21:19:46.255Z,214167.00
2023-02-02T21:25:48.635Z,214120.00
2023-02-02T21:31:50.721Z,214060.00
2023-02-02T21:37:57.251Z,214024.00
2023-02-02T21:43:59.925Z,214013.00
2023-02-02T21:50:14.487Z,214018.00
2023-02-02T21:56:42.854Z,213988.00
2023-02-02T22:02:49.303Z,213988.00
2023-02-02T22:08:53.689Z,213940.00
2023-02-02T22:15:01.238Z,213946.00
2023-02-02T22:21:06.138Z,213926.00
2023-02-02T22:27:19.331Z,213881.00
2023-02-02T22:33:23.125Z,213867.00
2023-02-02T22:39:25.438Z,213881.00
2023-02-02T22:45:27.583Z,213845.00
2023-02-02T22:51:29.685Z,213807.00
2023-02-02T22:57:31.886Z,213865.00
2023-02-02T23:03:33.935Z,213813.00
2023-02-02T23:09:36.258Z,213765.00
2023-02-02T23:15:38.745Z,213746.00
2023-02-02T23:21:41.027Z,213681.00
2023-02-02T23:27:43.656Z,213713.00
2023-02-02T23:33:46.037Z,213713.00
2023-02-02T23:39:48.088Z,213687.00
2023-02-02T23:45:51.084Z,213667.00
2023-02-02T23:51:53.250Z,213627.00
2023-02-02T23:57:56.427Z,213600.00
